Time;durP1;ratioP1;P1;durP2;ratioP2;P2;SDS_P1;SDS_P2;PMS_P1;PMS_P2;Temp;Humidity;BMP_temperature;BMP_pressure;BME280_temperature;BME280_humidity;BME280_pressure;Samples;Min_cycle;Max_cycle;Signal;HPM_P1;HPM_P2
2021/01/03 00:00:27;;;;;;;34.55;15.68;;;-0.30;99.90;;;;;;4968785;28;20042;-75
2021/01/03 00:02:53;;;;;;;33.78;16.30;;;-0.30;99.90;;;;;;4971052;28;20081;-75
2021/01/03 00:05:22;;;;;;;34.65;15.88;;;-0.20;99.90;;;;;;4970249;28;20038;-75
2021/01/03 00:07:48;;;;;;;36.92;17.83;;;-0.10;99.90;;;;;;4969344;28;20044;-76
2021/01/03 00:10:15;;;;;;;36.67;17.42;;;0.00;99.90;;;;;;4961264;28;20058;-73
2021/01/03 00:12:41;;;;;;;34.03;16.50;;;0.20;99.90;;;;;;4978712;28;20041;-75
2021/01/03 00:15:13;;;;;;;36.15;16.67;;;0.20;99.90;;;;;;4980961;28;20072;-73
2021/01/03 00:17:39;;;;;;;36.70;17.42;;;0.30;99.90;;;;;;4973943;28;20038;-73
2021/01/03 00:20:07;;;;;;;31.75;15.82;;;0.30;99.90;;;;;;4992640;28;20061;-77
2021/01/03 00:22:33;;;;;;;34.60;16.80;;;0.30;99.90;;;;;;4971044;28;20041;-72
2021/01/03 00:24:59;;;;;;;32.60;16.27;;;0.40;99.90;;;;;;4975917;28;20050;-72
2021/01/03 00:27:25;;;;;;;31.85;14.70;;;0.50;99.90;;;;;;4973878;28;20478;-73
2021/01/03 00:29:50;;;;;;;31.25;15.65;;;0.50;99.90;;;;;;4973433;28;20049;-72
2021/01/03 00:32:16;;;;;;;36.75;17.35;;;0.60;99.90;;;;;;4974224;28;20038;-72
2021/01/03 00:34:42;;;;;;;38.30;17.33;;;0.80;99.90;;;;;;4971532;28;20046;-73
2021/01/03 00:37:08;;;;;;;32.65;16.40;;;0.90;99.90;;;;;;4983062;28;20073;-73
2021/01/03 00:39:33;;;;;;;31.95;16.55;;;0.90;99.90;;;;;;4981945;28;20446;-73
2021/01/03 00:41:59;;;;;;;33.00;16.30;;;0.90;99.90;;;;;;4974236;28;20066;-73
2021/01/03 00:44:25;;;;;;;37.67;17.85;;;1.00;99.90;;;;;;4972624;28;20518;-73
2021/01/03 00:46:51;;;;;;;34.03;16.95;;;1.10;99.90;;;;;;4969277;28;20082;-73
2021/01/03 00:49:17;;;;;;;36.45;16.67;;;1.20;99.90;;;;;;4977127;28;20031;-73
2021/01/03 00:51:42;;;;;;;31.63;15.80;;;1.10;99.90;;;;;;4981647;28;20072;-75
2021/01/03 00:54:08;;;;;;;30.95;15.95;;;1.20;99.90;;;;;;4980493;28;21023;-75
2021/01/03 00:56:34;;;;;;;33.25;15.35;;;1.20;99.90;;;;;;4984482;28;20041;-76
2021/01/03 00:59:00;;;;;;;31.40;16.35;;;1.20;99.90;;;;;;4967941;28;20030;-76
2021/01/03 01:01:26;;;;;;;32.45;16.73;;;1.20;99.90;;;;;;4996886;28;20497;-76
2021/01/03 01:03:52;;;;;;;31.25;15.05;;;1.20;99.90;;;;;;4975932;28;20507;-75
2021/01/03 01:06:18;;;;;;;32.10;14.82;;;1.10;99.90;;;;;;4978367;28;20157;-76
2021/01/03 01:08:45;;;;;;;31.88;16.02;;;1.10;99.90;;;;;;4961605;28;20045;-76
2021/01/03 01:11:10;;;;;;;30.95;15.07;;;1.20;99.90;;;;;;4972510;28;20045;-75
2021/01/03 01:13:36;;;;;;;31.13;14.55;;;1.20;99.90;;;;;;4960503;28;20026;-73
2021/01/03 01:16:05;;;;;;;29.13;14.35;;;1.20;99.90;;;;;;4978656;28;20820;-73
2021/01/03 01:18:30;;;;;;;28.88;14.60;;;1.20;99.90;;;;;;4993228;28;20042;-73
2021/01/03 01:20:56;;;;;;;31.85;14.88;;;1.20;99.90;;;;;;4969662;28;20082;-73
2021/01/03 01:23:21;;;;;;;28.45;13.73;;;1.30;99.90;;;;;;4972810;28;20026;-73
2021/01/03 01:25:47;;;;;;;25.27;12.55;;;1.30;99.90;;;;;;4992765;28;20085;-73
2021/01/03 01:28:13;;;;;;;25.65;13.95;;;1.30;99.90;;;;;;4974055;28;20072;-73
2021/01/03 01:30:39;;;;;;;22.95;12.18;;;1.40;99.90;;;;;;4967690;28;20127;-73
2021/01/03 01:33:05;;;;;;;22.30;10.98;;;1.40;99.90;;;;;;4978827;28;20840;-76
2021/01/03 01:35:33;;;;;;;26.08;12.20;;;1.40;99.90;;;;;;4970484;28;20034;-76
2021/01/03 01:38:00;;;;;;;26.27;13.30;;;1.50;99.90;;;;;;4968979;28;20035;-76
2021/01/03 01:40:37;;;;;;;24.80;12.80;;;1.40;99.90;;;;;;4963943;28;20039;-75
2021/01/03 01:43:06;;;;;;;22.90;11.80;;;1.50;99.90;;;;;;4976009;28;20038;-76
2021/01/03 01:45:35;;;;;;;24.60;12.80;;;1.50;99.90;;;;;;4970433;28;20384;-75
2021/01/03 01:48:27;;;;;;;22.77;11.95;;;1.50;99.90;;;;;;4988618;28;20062;-73
2021/01/03 01:50:59;;;;;;;23.50;12.07;;;1.50;99.90;;;;;;4962695;28;20459;-73
2021/01/03 01:53:27;;;;;;;23.27;12.13;;;1.50;99.90;;;;;;4973699;28;20100;-73
2021/01/03 01:56:29;;;;;;;24.52;12.55;;;1.50;99.90;;;;;;4988236;28;20875;-73
2021/01/03 01:59:19;;;;;;;27.65;13.23;;;1.50;99.90;;;;;;4978706;28;20105;-73
2021/01/03 02:02:07;;;;;;;26.60;12.20;;;1.40;99.90;;;;;;4977149;28;20133;-75
2021/01/03 02:04:38;;;;;;;21.65;11.65;;;1.40;99.90;;;;;;4966528;28;20251;-76
2021/01/03 02:07:32;;;;;;;26.30;12.57;;;1.40;99.90;;;;;;4977978;28;20038;-75
2021/01/03 02:10:16;;;;;;;23.40;11.68;;;1.40;99.90;;;;;;4978057;28;20060;-73
2021/01/03 02:12:46;;;;;;;22.88;11.45;;;1.40;99.90;;;;;;4970785;28;20637;-73
2021/01/03 02:15:23;;;;;;;24.83;11.88;;;1.60;99.90;;;;;;4966889;28;20045;-73
2021/01/03 02:17:49;;;;;;;24.63;11.35;;;1.60;99.90;;;;;;4991446;28;20038;-73
2021/01/03 02:20:16;;;;;;;27.52;11.20;;;1.50;99.90;;;;;;4989169;28;20038;-73
2021/01/03 02:22:50;;;;;;;23.75;11.38;;;1.60;99.90;;;;;;4972787;28;20069;-73
2021/01/03 02:25:18;;;;;;;24.60;10.90;;;1.50;99.90;;;;;;4968817;28;20617;-73
2021/01/03 02:28:19;;;;;;;24.77;12.18;;;1.50;99.90;;;;;;4973485;28;20042;-73
2021/01/03 02:30:53;;;;;;;23.73;10.95;;;1.60;99.90;;;;;;4974162;28;20054;-73
2021/01/03 02:33:43;;;;;;;22.58;10.40;;;1.50;99.90;;;;;;4945431;28;20031;-73
2021/01/03 02:36:35;;;;;;;23.02;10.23;;;1.50;99.90;;;;;;4977340;28;20042;-73
2021/01/03 02:39:27;;;;;;;21.92;10.65;;;1.50;99.90;;;;;;4973693;28;20130;-73
2021/01/03 02:41:56;;;;;;;22.40;10.98;;;1.40;99.90;;;;;;4969103;28;20042;-75
2021/01/03 02:44:22;;;;;;;23.40;10.27;;;1.50;99.90;;;;;;4976322;28;20041;-75
2021/01/03 02:46:50;;;;;;;21.77;10.18;;;1.40;99.90;;;;;;4970341;28;20038;-75
2021/01/03 02:49:15;;;;;;;22.55;10.00;;;1.40;99.90;;;;;;4971193;28;20034;-75
2021/01/03 02:51:41;;;;;;;23.92;10.82;;;1.50;99.90;;;;;;4977476;28;20680;-76
2021/01/03 02:54:08;;;;;;;22.17;9.77;;;1.60;99.90;;;;;;4963814;28;20018;-75
2021/01/03 02:56:35;;;;;;;22.95;9.77;;;1.50;99.90;;;;;;4977847;28;20085;-75
2021/01/03 02:59:01;;;;;;;21.30;9.50;;;1.50;99.90;;;;;;4979193;28;20855;-75
2021/01/03 03:01:27;;;;;;;22.30;10.80;;;1.50;99.90;;;;;;4962101;28;20138;-75
2021/01/03 03:03:52;;;;;;;21.65;9.65;;;1.50;99.90;;;;;;4977389;28;20069;-76
2021/01/03 03:06:18;;;;;;;22.95;9.60;;;1.60;99.90;;;;;;4976654;28;20113;-75
2021/01/03 03:08:43;;;;;;;21.50;10.60;;;1.60;99.90;;;;;;4969736;28;20027;-75
2021/01/03 03:11:09;;;;;;;21.60;10.13;;;1.60;99.90;;;;;;4989109;28;20395;-75
2021/01/03 03:13:35;;;;;;;26.35;10.60;;;1.60;99.90;;;;;;4975085;28;20818;-75
2021/01/03 03:16:00;;;;;;;22.10;10.25;;;1.60;99.90;;;;;;4971948;28;20041;-75
2021/01/03 03:18:27;;;;;;;22.45;9.63;;;1.60;99.90;;;;;;4975935;28;20560;-75
2021/01/03 03:20:52;;;;;;;22.50;10.10;;;1.60;99.90;;;;;;4971300;28;20100;-76
2021/01/03 03:23:18;;;;;;;22.58;8.98;;;1.70;99.90;;;;;;4969025;28;20046;-75
2021/01/03 03:25:44;;;;;;;20.67;8.73;;;1.60;99.90;;;;;;4973197;28;20108;-75
2021/01/03 03:28:09;;;;;;;18.73;8.52;;;1.60;99.90;;;;;;4968242;28;20062;-75
2021/01/03 03:30:35;;;;;;;20.77;9.68;;;1.60;99.90;;;;;;4964446;28;20026;-75
2021/01/03 03:33:01;;;;;;;23.08;9.52;;;1.60;99.90;;;;;;4973037;28;20636;-75
2021/01/03 03:35:35;;;;;;;24.60;10.20;;;1.50;99.90;;;;;;4971316;28;20061;-76
2021/01/03 03:38:02;;;;;;;21.10;8.57;;;1.60;99.90;;;;;;4971314;28;20098;-73
2021/01/03 03:40:28;;;;;;;23.83;9.93;;;1.60;99.90;;;;;;4974554;28;20828;-73
2021/01/03 03:42:53;;;;;;;22.85;10.05;;;1.60;99.90;;;;;;4970993;28;20041;-73
2021/01/03 03:45:20;;;;;;;22.52;9.68;;;1.60;99.90;;;;;;4990504;28;20120;-73
2021/01/03 03:47:45;;;;;;;22.67;9.13;;;1.50;99.90;;;;;;4972936;28;20034;-73
2021/01/03 03:50:15;;;;;;;22.15;10.20;;;1.50;99.90;;;;;;4972577;28;20809;-73
2021/01/03 03:52:40;;;;;;;20.52;9.00;;;1.60;99.90;;;;;;4977927;28;20027;-73
2021/01/03 03:55:07;;;;;;;22.98;10.13;;;1.60;99.90;;;;;;4979538;28;20508;-73
2021/01/03 03:57:33;;;;;;;22.27;9.23;;;1.60;99.90;;;;;;4978790;28;20030;-73
2021/01/03 03:59:58;;;;;;;22.48;9.57;;;1.60;99.90;;;;;;4959491;28;20034;-72
2021/01/03 04:02:24;;;;;;;18.95;8.90;;;1.60;99.90;;;;;;4968731;28;20034;-73
2021/01/03 04:04:50;;;;;;;23.45;9.38;;;1.60;99.90;;;;;;4969835;28;20034;-73
2021/01/03 04:07:15;;;;;;;20.73;9.75;;;1.70;99.90;;;;;;4977029;28;20041;-73
2021/01/03 04:09:41;;;;;;;21.42;9.35;;;1.60;99.90;;;;;;4966874;28;20035;-75
2021/01/03 04:12:07;;;;;;;23.58;9.93;;;1.60;99.90;;;;;;4976243;28;20063;-75
2021/01/03 04:14:33;;;;;;;18.33;9.02;;;1.50;99.90;;;;;;4980972;28;20112;-76
2021/01/03 04:17:01;;;;;;;26.85;9.15;;;1.50;99.90;;;;;;4964767;28;20034;-76
2021/01/03 04:19:28;;;;;;;21.95;9.60;;;1.40;99.90;;;;;;4960281;28;20636;-76
2021/01/03 04:22:02;;;;;;;21.50;9.43;;;1.60;99.90;;;;;;4990552;28;20168;-75
2021/01/03 04:24:29;;;;;;;20.83;9.25;;;1.50;99.90;;;;;;4975005;28;20097;-75
2021/01/03 04:26:58;;;;;;;21.02;9.52;;;1.60;99.90;;;;;;4972625;28;20042;-75
2021/01/03 04:29:24;;;;;;;20.80;9.30;;;1.60;99.90;;;;;;4956880;28;20983;-77
2021/01/03 04:31:55;;;;;;;21.63;9.43;;;1.60;99.90;;;;;;4963398;28;20030;-75
2021/01/03 04:34:21;;;;;;;24.63;9.52;;;1.60;99.90;;;;;;4965748;28;20027;-75
2021/01/03 04:36:49;;;;;;;22.45;9.30;;;1.50;99.90;;;;;;4975639;28;20069;-73
2021/01/03 04:39:15;;;;;;;20.52;8.85;;;1.60;99.90;;;;;;4972043;28;20030;-73
2021/01/03 04:41:41;;;;;;;20.33;9.13;;;1.60;99.90;;;;;;4969702;28;20926;-72
2021/01/03 04:44:23;;;;;;;22.33;9.43;;;1.60;99.90;;;;;;4968200;28;20066;-73
2021/01/03 04:46:49;;;;;;;19.67;8.77;;;1.60;99.90;;;;;;4966802;28;20130;-73
2021/01/03 04:49:43;;;;;;;21.90;9.05;;;1.50;99.90;;;;;;4966958;28;20031;-73
2021/01/03 04:52:40;;;;;;;17.63;8.07;;;1.50;99.90;;;;;;4973875;28;20042;-73
2021/01/03 04:55:11;;;;;;;19.50;8.35;;;1.50;99.90;;;;;;4979555;28;20030;-73
2021/01/03 04:57:46;;;;;;;18.65;8.32;;;1.50;99.90;;;;;;4974934;28;20022;-73
2021/01/03 05:00:16;;;;;;;17.45;8.20;;;1.60;99.90;;;;;;4977280;28;20026;-73
2021/01/03 05:03:12;;;;;;;17.65;8.27;;;1.60;99.90;;;;;;4978570;28;20463;-74
2021/01/03 05:05:46;;;;;;;17.25;8.15;;;1.60;99.90;;;;;;4994544;28;20062;-76
2021/01/03 05:08:33;;;;;;;22.42;9.25;;;1.50;99.90;;;;;;4962296;28;20034;-76
2021/01/03 05:11:05;;;;;;;19.95;8.00;;;1.60;99.90;;;;;;4950256;28;649405;-76
2021/01/03 05:13:43;;;;;;;19.00;8.90;;;1.60;99.90;;;;;;4988081;28;20064;-76
2021/01/03 05:16:11;;;;;;;18.63;8.38;;;1.60;99.90;;;;;;4970327;28;20118;-75
2021/01/03 05:18:37;;;;;;;21.85;8.57;;;1.60;99.90;;;;;;4973893;28;20062;-74
2021/01/03 05:21:12;;;;;;;19.40;8.93;;;1.60;99.90;;;;;;4978625;28;20121;-75
2021/01/03 05:23:40;;;;;;;19.87;8.60;;;1.50;99.90;;;;;;4962245;28;20058;-75
2021/01/03 05:26:24;;;;;;;20.73;8.75;;;1.50;99.90;;;;;;4976825;28;20041;-75
2021/01/03 05:28:55;;;;;;;20.30;9.52;;;1.50;99.90;;;;;;4974251;28;20053;-75
2021/01/03 05:31:21;;;;;;;22.02;9.80;;;1.50;99.90;;;;;;4971002;28;20045;-75
2021/01/03 05:33:59;;;;;;;21.05;9.57;;;1.40;99.90;;;;;;4972923;28;20137;-76
2021/01/03 05:36:34;;;;;;;23.27;11.20;;;1.40;99.90;;;;;;4969040;28;20043;-74
2021/01/03 05:39:03;;;;;;;26.65;10.15;;;1.40;99.90;;;;;;4989199;28;20038;-74
2021/01/03 05:42:11;;;;;;;23.67;10.43;;;1.40;99.90;;;;;;4992451;28;20042;-74
2021/01/03 05:44:39;;;;;;;25.92;11.02;;;1.30;99.90;;;;;;4976193;28;20478;-74
2021/01/03 05:47:11;;;;;;;24.65;10.05;;;1.30;99.90;;;;;;4971746;28;20126;-75
2021/01/03 05:49:37;;;;;;;22.88;10.40;;;1.30;99.90;;;;;;4973655;28;20045;-74
2021/01/03 05:52:28;;;;;;;23.83;10.63;;;1.30;99.90;;;;;;4973678;28;20038;-74
2021/01/03 05:54:54;;;;;;;20.48;10.10;;;1.30;99.90;;;;;;4974974;28;20037;-75
2021/01/03 05:57:32;;;;;;;24.02;10.70;;;1.20;99.90;;;;;;4972246;28;20093;-74
2021/01/03 06:00:13;;;;;;;21.45;10.85;;;1.20;99.90;;;;;;4980707;28;20039;-73
2021/01/03 06:02:38;;;;;;;25.75;10.98;;;1.30;99.90;;;;;;4979377;28;20526;-73
2021/01/03 06:05:07;;;;;;;26.70;11.52;;;1.20;99.90;;;;;;4977965;28;20038;-73
2021/01/03 06:07:34;;;;;;;27.27;11.80;;;1.20;99.90;;;;;;4979586;28;20483;-73
2021/01/03 06:10:00;;;;;;;19.85;9.68;;;1.20;99.90;;;;;;4987208;28;20075;-76
2021/01/03 06:12:28;;;;;;;27.00;11.00;;;1.20;99.90;;;;;;4984085;28;20130;-75
2021/01/03 06:15:00;;;;;;;26.98;11.50;;;1.10;99.90;;;;;;4972044;28;20073;-76
2021/01/03 06:17:29;;;;;;;27.75;11.02;;;1.20;99.90;;;;;;4962451;28;20190;-75
2021/01/03 06:20:14;;;;;;;27.48;11.95;;;1.20;99.90;;;;;;4977659;28;20117;-77
2021/01/03 06:22:48;;;;;;;27.75;12.05;;;1.10;99.90;;;;;;4959380;28;20049;-77
2021/01/03 06:25:34;;;;;;;25.45;11.13;;;1.20;99.90;;;;;;4956876;28;20765;-77
2021/01/03 06:28:15;;;;;;;27.90;10.77;;;1.20;99.90;;;;;;4964418;28;20090;-76
2021/01/03 06:30:49;;;;;;;26.75;11.88;;;1.20;99.90;;;;;;4960554;28;20034;-76
2021/01/03 06:33:21;;;;;;;24.57;10.73;;;1.10;99.90;;;;;;4957462;28;20053;-77
2021/01/03 06:35:58;;;;;;;27.27;10.63;;;1.10;99.90;;;;;;4963196;28;20033;-76
2021/01/03 06:38:52;;;;;;;22.00;10.65;;;1.20;99.90;;;;;;4970983;28;20035;-77
2021/01/03 06:41:23;;;;;;;25.08;10.48;;;1.10;99.90;;;;;;4968095;28;20038;-78
2021/01/03 06:44:40;;;;;;;22.80;9.55;;;1.10;99.90;;;;;;4968178;28;20030;-77
2021/01/03 06:47:17;;;;;;;23.55;10.30;;;1.10;99.90;;;;;;4960967;28;20034;-76
2021/01/03 06:50:11;;;;;;;24.02;10.95;;;1.10;99.90;;;;;;4978003;28;20041;-82
2021/01/03 06:53:19;;;;;;;24.38;10.38;;;1.10;99.90;;;;;;4958941;28;20061;-78
2021/01/03 06:56:22;;;;;;;22.50;10.50;;;1.00;99.90;;;;;;4968977;28;20042;-79
2021/01/03 06:59:25;;;;;;;23.23;10.07;;;1.00;99.90;;;;;;4971997;28;20035;-78
2021/01/03 07:01:50;;;;;;;29.52;12.55;;;1.10;99.90;;;;;;4981021;28;20045;-78
2021/01/03 07:04:27;;;;;;;22.38;9.18;;;1.10;99.90;;;;;;4975751;28;20404;-78
2021/01/03 07:06:55;;;;;;;20.52;9.27;;;1.00;99.90;;;;;;4967484;28;20038;-78
2021/01/03 07:09:21;;;;;;;24.25;10.70;;;1.00;99.90;;;;;;4968990;28;20045;-78
2021/01/03 07:11:56;;;;;;;24.02;9.85;;;1.10;99.90;;;;;;4975097;28;20034;-78
2021/01/03 07:14:22;;;;;;;23.08;9.80;;;1.10;99.90;;;;;;4964259;28;20039;-81
2021/01/03 07:16:59;;;;;;;26.10;10.35;;;1.10;99.90;;;;;;4963426;28;20037;-78
2021/01/03 07:19:35;;;;;;;22.17;9.77;;;1.10;99.90;;;;;;4966296;28;20038;-78
2021/01/03 07:22:13;;;;;;;23.80;10.10;;;1.10;99.90;;;;;;4970830;28;20451;-76
2021/01/03 07:24:51;;;;;;;23.48;10.05;;;1.00;99.90;;;;;;4966628;28;20038;-76
2021/01/03 07:27:31;;;;;;;23.80;9.43;;;1.00;99.90;;;;;;4988473;28;20113;-76
2021/01/03 07:29:57;;;;;;;24.20;10.02;;;1.00;99.90;;;;;;4967899;28;20078;-77
2021/01/03 07:32:42;;;;;;;23.83;9.95;;;1.20;99.90;;;;;;4979122;28;20439;-75
2021/01/03 07:35:34;;;;;;;19.45;8.98;;;1.10;99.90;;;;;;4951088;28;20094;-75
2021/01/03 07:38:21;;;;;;;21.38;10.27;;;1.10;99.90;;;;;;4987826;28;20074;-75
2021/01/03 07:41:05;;;;;;;23.08;9.50;;;1.10;99.90;;;;;;4965856;28;20122;-74
2021/01/03 07:44:00;;;;;;;25.50;10.45;;;1.10;99.90;;;;;;4970898;28;20046;-75
2021/01/03 07:46:49;;;;;;;27.80;10.32;;;1.00;99.90;;;;;;4959872;28;20848;-74
2021/01/03 07:49:25;;;;;;;29.67;11.88;;;1.00;99.90;;;;;;4952998;28;20042;-75
2021/01/03 07:51:50;;;;;;;25.02;10.43;;;1.00;99.90;;;;;;4948097;28;20116;-75
2021/01/03 07:54:16;;;;;;;27.70;10.57;;;1.00;99.90;;;;;;4965128;28;20038;-75
2021/01/03 07:56:42;;;;;;;24.85;9.95;;;1.10;99.90;;;;;;4973886;28;20035;-75
2021/01/03 07:59:07;;;;;;;25.13;10.40;;;1.00;99.90;;;;;;4970557;28;20050;-75
2021/01/03 08:01:39;;;;;;;19.90;9.38;;;1.00;99.90;;;;;;4966602;28;20031;-75
2021/01/03 08:04:25;;;;;;;23.13;10.18;;;1.00;99.90;;;;;;4966919;28;20511;-74
2021/01/03 08:06:51;;;;;;;20.48;9.48;;;1.00;99.90;;;;;;4968017;28;20122;-75
2021/01/03 08:09:27;;;;;;;24.20;10.52;;;1.00;99.90;;;;;;4963354;28;20062;-75
2021/01/03 08:12:09;;;;;;;23.23;10.00;;;1.00;99.90;;;;;;4969365;28;20454;-75
2021/01/03 08:14:40;;;;;;;25.23;10.85;;;1.10;99.90;;;;;;4968997;28;20517;-76
2021/01/03 08:17:07;;;;;;;23.80;10.27;;;1.10;99.90;;;;;;4962148;28;20053;-76
2021/01/03 08:19:33;;;;;;;23.35;10.55;;;1.10;99.90;;;;;;4969946;28;20038;-76
2021/01/03 08:22:01;;;;;;;24.73;10.07;;;1.10;99.90;;;;;;4957065;28;20606;-76
2021/01/03 08:24:29;;;;;;;22.52;10.32;;;1.10;99.90;;;;;;4939202;28;20031;-78
2021/01/03 08:27:13;;;;;;;23.98;9.65;;;1.10;99.90;;;;;;4950700;28;20058;-77
2021/01/03 08:29:54;;;;;;;27.10;9.60;;;1.10;99.90;;;;;;4981539;28;20026;-76
2021/01/03 08:32:27;;;;;;;21.55;9.48;;;1.10;99.90;;;;;;4961207;28;20164;-78
2021/01/03 08:35:01;;;;;;;24.17;10.40;;;1.10;99.90;;;;;;4962723;28;20031;-78
2021/01/03 08:37:54;;;;;;;22.00;10.18;;;1.10;99.90;;;;;;4962421;28;20066;-78
2021/01/03 08:40:34;;;;;;;23.20;10.23;;;1.10;99.90;;;;;;4962462;28;20035;-78
2021/01/03 08:43:17;;;;;;;24.67;10.93;;;1.10;99.90;;;;;;4961806;28;20034;-78
2021/01/03 08:45:47;;;;;;;23.75;10.00;;;1.00;99.90;;;;;;4957924;28;20040;-78
2021/01/03 08:48:24;;;;;;;23.25;10.45;;;1.10;99.90;;;;;;4981490;28;20030;-77
2021/01/03 08:51:02;;;;;;;21.13;9.55;;;1.10;99.90;;;;;;4972130;28;20030;-77
2021/01/03 08:53:28;;;;;;;19.98;9.50;;;1.10;99.90;;;;;;4963212;28;20513;-77
2021/01/03 08:56:15;;;;;;;20.13;9.32;;;1.10;99.90;;;;;;4971184;28;20121;-77
2021/01/03 08:58:42;;;;;;;24.02;9.98;;;1.20;99.90;;;;;;4963537;28;20121;-78
2021/01/03 09:01:27;;;;;;;23.85;10.95;;;1.20;99.90;;;;;;4964130;28;20038;-77
2021/01/03 09:03:58;;;;;;;21.10;9.90;;;1.10;99.90;;;;;;4944974;28;20035;-77
2021/01/03 09:06:25;;;;;;;23.88;10.48;;;1.10;99.90;;;;;;4964851;28;20110;-77
2021/01/03 09:08:52;;;;;;;19.60;10.00;;;1.10;99.90;;;;;;4971099;28;20161;-77
2021/01/03 09:11:28;;;;;;;21.48;10.55;;;1.10;99.90;;;;;;4970251;28;20042;-78
2021/01/03 09:13:57;;;;;;;21.98;10.50;;;1.20;99.90;;;;;;4966184;28;20423;-73
2021/01/03 09:16:34;;;;;;;22.40;10.05;;;1.20;99.90;;;;;;4973399;28;20073;-77
2021/01/03 09:19:31;;;;;;;20.48;9.80;;;1.20;99.90;;;;;;4971176;28;20031;-74
2021/01/03 09:22:01;;;;;;;21.75;9.85;;;1.20;99.90;;;;;;4966450;28;20053;-77
2021/01/03 09:24:31;;;;;;;25.80;12.05;;;1.20;99.90;;;;;;4960021;28;20035;-72
2021/01/03 09:27:01;;;;;;;28.55;12.85;;;1.20;99.90;;;;;;4970571;28;20105;-77
2021/01/03 09:29:39;;;;;;;22.02;10.30;;;1.20;99.90;;;;;;4979686;28;20662;-75
2021/01/03 09:32:22;;;;;;;22.48;10.43;;;1.20;99.90;;;;;;4959861;28;20038;-78
2021/01/03 09:35:11;;;;;;;22.65;10.07;;;1.20;99.90;;;;;;4952518;28;20062;-78
2021/01/03 09:37:40;;;;;;;19.58;10.10;;;1.20;99.90;;;;;;4978237;28;20046;-78
2021/01/03 09:40:30;;;;;;;21.33;10.63;;;1.20;99.90;;;;;;4979806;28;20034;-78
2021/01/03 09:43:41;;;;;;;21.35;10.02;;;1.20;99.90;;;;;;4941409;28;20035;-78
2021/01/03 09:46:34;;;;;;;21.05;10.13;;;1.20;99.90;;;;;;4972408;28;20045;-79
2021/01/03 09:49:35;;;;;;;20.00;10.48;;;1.20;99.90;;;;;;4956090;28;20050;-79
2021/01/03 09:52:26;;;;;;;20.85;9.90;;;1.20;99.90;;;;;;4938327;28;20038;-79
2021/01/03 09:55:24;;;;;;;21.88;10.38;;;1.30;99.90;;;;;;4955609;28;20034;-79
2021/01/03 09:58:08;;;;;;;23.75;11.32;;;1.20;99.90;;;;;;4960769;28;20073;-79
2021/01/03 10:00:53;;;;;;;22.90;9.95;;;1.20;99.90;;;;;;4964094;28;20030;-80
2021/01/03 10:03:34;;;;;;;22.83;10.50;;;1.20;99.90;;;;;;4964137;28;20054;-82
2021/01/03 10:06:14;;;;;;;19.73;9.80;;;1.20;99.90;;;;;;4971800;28;20046;-83
2021/01/03 10:08:40;;;;;;;19.05;9.20;;;1.20;99.90;;;;;;4979990;28;20027;-83
2021/01/03 10:11:06;;;;;;;20.58;10.63;;;1.20;99.90;;;;;;4953701;28;20403;-84
2021/01/03 10:13:32;;;;;;;21.90;10.02;;;1.20;99.90;;;;;;4969328;28;20506;-83
2021/01/03 10:16:15;;;;;;;19.85;9.50;;;1.10;99.90;;;;;;4974188;28;20112;-83
2021/01/03 10:18:41;;;;;;;17.02;8.90;;;1.10;99.90;;;;;;4930360;28;20058;-83
2021/01/03 10:21:34;;;;;;;17.48;8.32;;;1.20;99.90;;;;;;4973858;28;20042;-84
2021/01/03 10:24:03;;;;;;;17.77;9.30;;;1.20;99.90;;;;;;4969582;28;20788;-84
2021/01/03 10:26:35;;;;;;;20.15;10.20;;;1.10;99.90;;;;;;4980036;28;20038;-85
2021/01/03 10:29:02;;;;;;;16.10;8.88;;;1.10;99.90;;;;;;4996895;28;20026;-85
2021/01/03 10:31:57;;;;;;;18.65;9.07;;;1.20;99.90;;;;;;4963233;28;20032;-84
2021/01/03 10:34:24;;;;;;;18.07;8.67;;;1.20;99.90;;;;;;4947593;28;20072;-85
2021/01/03 10:36:52;;;;;;;19.17;8.85;;;1.20;99.90;;;;;;4974024;28;20061;-84
2021/01/03 10:39:18;;;;;;;16.70;8.90;;;1.20;99.90;;;;;;4962678;28;20068;-85
2021/01/03 10:41:44;;;;;;;16.70;9.00;;;1.20;99.90;;;;;;4973530;28;20837;-85
2021/01/03 10:44:11;;;;;;;20.02;8.40;;;1.20;99.90;;;;;;4965785;28;20165;-85
2021/01/03 10:46:38;;;;;;;17.38;8.60;;;1.10;99.90;;;;;;4968857;28;20471;-87
2021/01/03 10:49:04;;;;;;;14.70;7.68;;;1.10;99.90;;;;;;4963179;28;20042;-85
2021/01/03 10:51:35;;;;;;;23.30;9.35;;;1.10;99.90;;;;;;4962407;28;20407;-85
2021/01/03 10:54:02;;;;;;;14.90;7.70;;;1.10;99.90;;;;;;4968270;28;20063;-86
2021/01/03 10:56:28;;;;;;;17.40;8.25;;;1.10;99.90;;;;;;4963110;28;20133;-85
2021/01/03 10:58:54;;;;;;;15.50;8.20;;;1.20;99.90;;;;;;4962818;28;20134;-86
2021/01/03 11:01:20;;;;;;;18.38;8.55;;;1.20;99.90;;;;;;4982163;28;20745;-85
2021/01/03 11:03:46;;;;;;;17.15;8.20;;;1.20;99.90;;;;;;4982336;28;20080;-83
2021/01/03 11:06:12;;;;;;;15.23;8.23;;;1.20;99.90;;;;;;4975966;28;20041;-82
2021/01/03 11:08:38;;;;;;;15.07;7.95;;;1.20;99.90;;;;;;4972088;28;20778;-82
2021/01/03 11:11:08;;;;;;;16.60;8.52;;;1.20;99.90;;;;;;4943268;28;20031;-82
2021/01/03 11:13:34;;;;;;;15.93;8.38;;;1.20;99.90;;;;;;4971876;28;20038;-81
2021/01/03 11:16:00;;;;;;;15.43;8.50;;;1.30;99.90;;;;;;4967432;28;20070;-81
2021/01/03 11:18:26;;;;;;;14.20;7.93;;;1.30;99.90;;;;;;4952822;28;20030;-79
2021/01/03 11:20:52;;;;;;;16.95;8.30;;;1.30;99.90;;;;;;4963396;28;20093;-79
2021/01/03 11:23:19;;;;;;;13.82;7.70;;;1.30;99.90;;;;;;4974966;28;20105;-81
2021/01/03 11:25:48;;;;;;;13.30;7.97;;;1.30;99.90;;;;;;4951240;28;20034;-82
2021/01/03 11:28:14;;;;;;;15.27;8.18;;;1.30;99.90;;;;;;4970464;28;20529;-81
2021/01/03 11:30:40;;;;;;;14.40;8.05;;;1.30;99.90;;;;;;4945623;28;20030;-81
2021/01/03 11:33:06;;;;;;;15.88;7.72;;;1.30;99.90;;;;;;4965286;28;20062;-81
2021/01/03 11:35:32;;;;;;;15.38;8.15;;;1.30;99.90;;;;;;4964049;28;20613;-82
2021/01/03 11:37:58;;;;;;;13.35;7.35;;;1.20;99.90;;;;;;4960182;28;20126;-80
2021/01/03 11:40:24;;;;;;;16.40;7.82;;;1.20;99.90;;;;;;4972530;28;20030;-81
2021/01/03 11:42:49;;;;;;;34.45;14.45;;;1.30;99.90;;;;;;4946256;28;20058;-85
2021/01/03 11:45:18;;;;;;;15.65;8.38;;;1.30;99.90;;;;;;4966962;28;20716;-81
2021/01/03 11:47:44;;;;;;;13.35;7.70;;;1.30;99.90;;;;;;4947065;28;20034;-80
2021/01/03 11:50:14;;;;;;;14.40;7.68;;;1.20;99.90;;;;;;4964869;28;20034;-80
2021/01/03 11:52:40;;;;;;;13.20;7.18;;;1.30;99.90;;;;;;4959285;28;20039;-82
2021/01/03 11:55:09;;;;;;;15.30;7.57;;;1.30;99.90;;;;;;4967049;28;20035;-83
2021/01/03 11:57:35;;;;;;;14.25;8.05;;;1.30;99.90;;;;;;4978208;28;20133;-81
2021/01/03 12:00:03;;;;;;;14.38;7.60;;;1.20;99.90;;;;;;4955660;28;20596;-83
2021/01/03 12:02:38;;;;;;;14.65;7.65;;;1.30;99.90;;;;;;4975234;28;20045;-82
2021/01/03 12:05:05;;;;;;;14.63;8.25;;;1.20;99.90;;;;;;4952477;28;20380;-83
2021/01/03 12:07:31;;;;;;;15.38;7.63;;;1.30;99.90;;;;;;4955480;28;20115;-84
2021/01/03 12:09:56;;;;;;;14.95;8.00;;;1.30;99.90;;;;;;4964021;28;20031;-85
2021/01/03 12:12:22;;;;;;;15.25;8.23;;;1.20;99.90;;;;;;4964397;28;20536;-84
2021/01/03 12:14:51;;;;;;;12.23;7.07;;;1.20;99.90;;;;;;4961424;28;20034;-84
2021/01/03 12:17:20;;;;;;;11.98;6.97;;;1.20;99.90;;;;;;4966626;28;20045;-84
2021/01/03 12:19:48;;;;;;;15.20;7.03;;;1.30;99.90;;;;;;4963137;28;20039;-84
2021/01/03 12:22:14;;;;;;;11.65;7.10;;;1.40;99.90;;;;;;4955869;28;20050;-84
2021/01/03 12:24:40;;;;;;;13.60;7.78;;;1.40;99.90;;;;;;4963386;28;20038;-84
2021/01/03 12:27:10;;;;;;;12.05;7.20;;;1.40;99.90;;;;;;4965926;28;20697;-83
2021/01/03 12:29:36;;;;;;;12.90;6.43;;;1.50;99.90;;;;;;4953346;28;20380;-83
2021/01/03 12:32:08;;;;;;;12.20;6.78;;;1.40;99.90;;;;;;4966950;28;20032;-81
2021/01/03 12:34:34;;;;;;;12.07;7.03;;;1.40;99.90;;;;;;4977622;28;20035;-86
2021/01/03 12:37:12;;;;;;;12.40;6.93;;;1.40;99.90;;;;;;4975543;28;20140;-85
2021/01/03 12:39:40;;;;;;;12.13;6.70;;;1.40;99.90;;;;;;4947166;28;20859;-84
2021/01/03 12:42:07;;;;;;;12.38;7.10;;;1.40;99.90;;;;;;4945958;28;20043;-84
2021/01/03 12:44:32;;;;;;;14.13;7.03;;;1.40;99.90;;;;;;4979750;28;20166;-84
2021/01/03 12:47:00;;;;;;;11.65;6.68;;;1.40;99.90;;;;;;4968212;28;20030;-85
2021/01/03 12:49:27;;;;;;;12.90;6.97;;;1.40;99.90;;;;;;4963290;28;20749;-84
2021/01/03 12:51:53;;;;;;;11.65;6.53;;;1.40;99.90;;;;;;4963590;28;20046;-85
2021/01/03 12:54:19;;;;;;;12.05;6.90;;;1.40;99.90;;;;;;4962778;28;20538;-84
2021/01/03 12:56:45;;;;;;;12.43;6.72;;;1.40;99.90;;;;;;4957661;28;20034;-82
2021/01/03 12:59:11;;;;;;;12.15;5.75;;;1.40;99.90;;;;;;4974027;28;20034;-76
2021/01/03 13:01:39;;;;;;;24.73;12.55;;;1.40;99.90;;;;;;4967355;28;20212;-80
2021/01/03 13:04:06;;;;;;;14.32;7.15;;;1.40;99.90;;;;;;4964800;28;20097;-77
2021/01/03 13:06:33;;;;;;;12.32;6.57;;;1.40;99.90;;;;;;4946668;28;20038;-80